Time;durP1;ratioP1;P1;durP2;ratioP2;P2;SDS_P1;SDS_P2;PMS_P1;PMS_P2;Temp;Humidity;BMP_temperature;BMP_pressure;BME280_temperature;BME280_humidity;BME280_pressure;Samples;Min_cycle;Max_cycle;Signal;HPM_P1;HPM_P2
2022/08/05 00:01:54;;;;;;;6.45;4.88;;;23.00;99.90;;;;;;5095218;28;20610;-74
2022/08/05 00:04:20;;;;;;;5.78;5.15;;;23.00;99.90;;;;;;5094907;28;20659;-74
2022/08/05 00:06:47;;;;;;;8.02;5.20;;;23.00;99.90;;;;;;5094831;28;20201;-73
2022/08/05 00:09:14;;;;;;;5.30;4.80;;;23.00;99.90;;;;;;5094741;28;20262;-73
2022/08/05 00:11:40;;;;;;;6.07;4.50;;;22.90;99.90;;;;;;5094632;28;20689;-74
2022/08/05 00:14:07;;;;;;;7.57;4.68;;;22.90;99.90;;;;;;5094795;28;20718;-73
2022/08/05 00:16:34;;;;;;;6.35;4.65;;;22.70;99.90;;;;;;5094727;28;20197;-73
2022/08/05 00:19:02;;;;;;;5.07;4.57;;;22.70;99.90;;;;;;5094505;28;20223;-73
2022/08/05 00:21:28;;;;;;;5.85;4.75;;;22.60;99.90;;;;;;5094590;28;20621;-73
2022/08/05 00:23:55;;;;;;;5.70;5.20;;;22.60;99.90;;;;;;5094581;28;20659;-73
2022/08/05 00:26:22;;;;;;;6.13;5.35;;;22.70;99.90;;;;;;5094602;28;20200;-73
2022/08/05 00:28:49;;;;;;;7.15;5.05;;;22.70;99.90;;;;;;5094534;28;20204;-73
2022/08/05 00:31:15;;;;;;;5.82;5.13;;;22.70;99.90;;;;;;5094251;28;20200;-73
2022/08/05 00:33:42;;;;;;;5.70;5.13;;;22.70;99.90;;;;;;5094336;28;20249;-73
2022/08/05 00:36:10;;;;;;;6.57;5.40;;;22.60;99.90;;;;;;5094226;28;20340;-74
2022/08/05 00:38:38;;;;;;;12.55;6.10;;;22.60;99.90;;;;;;5094111;28;20196;-75
2022/08/05 00:41:06;;;;;;;8.65;6.10;;;22.60;99.90;;;;;;5094292;28;20224;-74
2022/08/05 00:43:33;;;;;;;6.43;5.50;;;22.60;99.90;;;;;;5094954;28;20550;-74
2022/08/05 00:46:00;;;;;;;7.43;5.47;;;22.70;99.90;;;;;;5094947;28;20257;-74
2022/08/05 00:48:26;;;;;;;8.35;5.40;;;22.40;99.90;;;;;;5093990;28;20196;-74
2022/08/05 00:50:53;;;;;;;7.53;5.35;;;22.30;99.90;;;;;;5093911;28;20204;-74
2022/08/05 00:53:22;;;;;;;6.82;5.63;;;22.40;99.90;;;;;;5093950;28;20203;-74
2022/08/05 00:55:50;;;;;;;6.97;5.40;;;22.30;99.90;;;;;;5093983;28;20258;-74
2022/08/05 00:58:18;;;;;;;6.00;5.40;;;22.30;99.90;;;;;;5094078;28;20245;-74
2022/08/05 01:00:45;;;;;;;6.20;5.30;;;22.30;99.90;;;;;;5093609;28;20701;-74
2022/08/05 01:03:12;;;;;;;7.93;5.70;;;22.30;99.90;;;;;;5093789;28;20208;-74
2022/08/05 01:05:39;;;;;;;6.10;5.28;;;22.30;99.90;;;;;;5093602;28;20199;-74
2022/08/05 01:08:06;;;;;;;7.38;5.40;;;22.20;99.90;;;;;;5093931;28;20253;-75
2022/08/05 01:10:41;;;;;;;8.77;5.88;;;22.30;99.90;;;;;;5093706;28;20265;-74
2022/08/05 01:13:16;;;;;;;6.57;5.70;;;22.20;99.90;;;;;;5093770;28;20241;-74
2022/08/05 01:15:48;;;;;;;9.07;5.53;;;22.10;99.90;;;;;;5093648;28;20196;-74
2022/08/05 01:18:22;;;;;;;7.00;5.45;;;22.10;99.90;;;;;;5093910;28;20196;-74
2022/08/05 01:20:59;;;;;;;6.07;5.47;;;22.00;99.90;;;;;;5093524;28;20227;-74
2022/08/05 01:23:40;;;;;;;7.53;5.90;;;22.00;99.90;;;;;;5093841;28;20532;-74
2022/08/05 01:26:21;;;;;;;6.22;5.57;;;22.10;99.90;;;;;;5093533;28;20196;-74
2022/08/05 01:28:54;;;;;;;6.20;5.25;;;22.00;99.90;;;;;;5093687;28;20200;-74
2022/08/05 01:31:26;;;;;;;6.18;5.30;;;21.90;99.90;;;;;;5093592;28;20196;-74
2022/08/05 01:34:00;;;;;;;5.78;5.28;;;21.90;99.90;;;;;;5093229;28;20643;-74
2022/08/05 01:36:31;;;;;;;6.45;5.20;;;21.90;99.90;;;;;;5093295;28;20287;-76
2022/08/05 01:38:58;;;;;;;6.18;5.32;;;21.80;99.90;;;;;;5092972;28;20614;-74
2022/08/05 01:41:29;;;;;;;6.13;5.32;;;21.70;99.90;;;;;;5093305;28;20197;-74
2022/08/05 01:43:57;;;;;;;5.50;5.00;;;21.70;99.90;;;;;;5093513;28;20196;-74
2022/08/05 01:46:25;;;;;;;5.70;5.20;;;21.70;99.90;;;;;;5093122;28;20196;-74
2022/08/05 01:48:54;;;;;;;7.20;5.78;;;21.70;99.90;;;;;;5093056;28;20196;-74
2022/08/05 01:51:23;;;;;;;6.38;5.72;;;21.70;99.90;;;;;;5092924;28;20622;-74
2022/08/05 01:53:52;;;;;;;7.80;5.93;;;21.70;99.90;;;;;;5093267;28;20196;-74
2022/08/05 01:56:21;;;;;;;7.20;5.60;;;21.70;99.90;;;;;;5093003;28;20196;-74
2022/08/05 01:58:50;;;;;;;10.48;6.28;;;21.60;99.90;;;;;;5092930;28;20196;-74
2022/08/05 02:01:20;;;;;;;7.78;5.90;;;21.50;99.90;;;;;;5092858;28;20200;-74
2022/08/05 02:03:48;;;;;;;7.38;6.05;;;21.60;99.90;;;;;;5092908;28;20737;-74
2022/08/05 02:06:16;;;;;;;6.93;5.78;;;21.60;99.90;;;;;;5092666;28;20594;-74
2022/08/05 02:08:43;;;;;;;5.65;5.10;;;21.60;99.90;;;;;;5092858;28;20196;-74
2022/08/05 02:11:12;;;;;;;6.07;5.53;;;21.60;99.90;;;;;;5092852;28;20196;-74
2022/08/05 02:13:44;;;;;;;5.82;5.22;;;21.50;99.90;;;;;;5092855;28;20204;-74
2022/08/05 02:16:16;;;;;;;8.85;5.85;;;21.60;99.90;;;;;;5092748;28;20250;-74
2022/08/05 02:18:48;;;;;;;5.90;5.20;;;21.50;99.90;;;;;;5092915;28;20196;-74
2022/08/05 02:21:19;;;;;;;5.88;5.28;;;21.40;99.90;;;;;;5092884;28;20224;-74
2022/08/05 02:23:49;;;;;;;5.72;5.00;;;21.60;99.90;;;;;;5092619;28;20196;-74
2022/08/05 02:26:21;;;;;;;5.72;5.15;;;21.60;99.90;;;;;;5092695;28;20200;-74
2022/08/05 02:28:49;;;;;;;7.30;5.43;;;21.60;99.90;;;;;;5092570;28;20655;-74
2022/08/05 02:31:26;;;;;;;6.35;5.68;;;21.70;99.90;;;;;;5092779;28;20218;-74
2022/08/05 02:33:57;;;;;;;6.70;6.15;;;21.70;99.90;;;;;;5092847;28;20290;-75
2022/08/05 02:36:26;;;;;;;7.70;6.30;;;21.70;99.90;;;;;;5092723;28;20204;-74
2022/08/05 02:38:55;;;;;;;6.47;5.80;;;21.70;99.90;;;;;;5092527;28;20279;-74
2022/08/05 02:41:25;;;;;;;7.07;6.13;;;21.70;99.90;;;;;;5092342;28;20235;-74
2022/08/05 02:43:52;;;;;;;8.10;6.38;;;21.70;99.90;;;;;;5092712;28;20208;-74
2022/08/05 02:46:21;;;;;;;7.72;7.03;;;21.70;99.90;;;;;;5092730;28;20201;-74
2022/08/05 02:48:48;;;;;;;7.95;5.40;;;21.70;99.90;;;;;;5092589;28;20250;-74
2022/08/05 02:51:18;;;;;;;8.23;5.30;;;21.60;99.90;;;;;;5092434;28;20204;-74
2022/08/05 02:53:45;;;;;;;6.32;4.85;;;21.50;99.90;;;;;;5092448;28;20299;-74
2022/08/05 02:56:13;;;;;;;12.73;5.10;;;21.60;99.90;;;;;;5092258;28;20651;-74
2022/08/05 02:58:41;;;;;;;6.97;4.80;;;22.20;99.90;;;;;;5092471;28;20204;-74
2022/08/05 03:01:11;;;;;;;6.88;4.80;;;22.30;99.90;;;;;;5092284;28;20231;-75
2022/08/05 03:03:40;;;;;;;6.05;5.10;;;22.30;99.90;;;;;;5092419;28;20249;-75
2022/08/05 03:06:10;;;;;;;8.07;5.00;;;22.20;99.90;;;;;;5092326;28;20226;-74
2022/08/05 03:08:39;;;;;;;5.55;4.55;;;22.10;99.90;;;;;;5092164;28;20602;-74
2022/08/05 03:11:17;;;;;;;5.40;4.47;;;22.30;99.90;;;;;;5092481;28;20200;-75
2022/08/05 03:13:43;;;;;;;6.43;4.90;;;22.30;99.90;;;;;;5092355;28;20208;-74
2022/08/05 03:16:10;;;;;;;5.65;4.38;;;22.50;99.90;;;;;;5092333;28;20193;-74
2022/08/05 03:18:37;;;;;;;5.75;4.88;;;22.60;99.90;;;;;;5095336;28;20200;-74
2022/08/05 03:21:04;;;;;;;5.75;4.30;;;22.70;99.90;;;;;;5095844;28;20702;-74
2022/08/05 03:23:31;;;;;;;6.32;4.40;;;22.70;99.90;;;;;;5095646;28;20663;-74
2022/08/05 03:26:00;;;;;;;6.47;4.50;;;22.70;99.90;;;;;;5095819;28;20224;-74
2022/08/05 03:28:27;;;;;;;7.47;4.72;;;22.70;99.90;;;;;;5095604;28;20197;-74
2022/08/05 03:30:54;;;;;;;5.43;4.32;;;22.70;99.90;;;;;;5095616;28;20269;-74
2022/08/05 03:33:21;;;;;;;4.70;4.25;;;22.70;99.90;;;;;;5095371;28;20648;-74
2022/08/05 03:35:48;;;;;;;4.60;4.20;;;22.70;99.90;;;;;;5095708;28;20204;-74
2022/08/05 03:38:15;;;;;;;9.88;4.60;;;22.70;99.90;;;;;;5095529;28;20236;-74
2022/08/05 03:40:42;;;;;;;4.63;4.20;;;22.70;99.90;;;;;;5095246;28;20269;-74
2022/08/05 03:43:10;;;;;;;5.00;4.53;;;22.60;99.90;;;;;;5095253;28;20701;-74
2022/08/05 03:45:37;;;;;;;5.10;4.65;;;22.70;99.90;;;;;;5095347;28;20196;-74
2022/08/05 03:48:04;;;;;;;6.10;4.40;;;22.70;99.90;;;;;;5095163;28;20196;-74
2022/08/05 03:50:41;;;;;;;7.10;4.43;;;22.60;99.90;;;;;;5095368;28;20245;-74
2022/08/05 03:53:12;;;;;;;6.57;3.78;;;22.60;99.90;;;;;;5095075;28;20722;-74
2022/08/05 03:55:44;;;;;;;5.95;4.18;;;22.50;99.90;;;;;;5095040;28;20259;-74
2022/08/05 03:58:17;;;;;;;7.78;4.60;;;22.40;99.90;;;;;;5095056;28;20196;-74
2022/08/05 04:00:45;;;;;;;7.03;4.13;;;22.40;99.90;;;;;;5094876;28;20220;-74
2022/08/05 04:03:14;;;;;;;7.60;4.03;;;22.40;99.90;;;;;;5095066;28;20204;-73
2022/08/05 04:05:42;;;;;;;7.15;3.97;;;22.40;99.90;;;;;;5094947;28;20200;-74
2022/08/05 04:08:11;;;;;;;6.10;3.90;;;22.40;99.90;;;;;;5094851;28;20265;-74
2022/08/05 04:10:38;;;;;;;7.20;4.15;;;22.30;99.90;;;;;;5094753;28;20200;-74
2022/08/05 04:13:06;;;;;;;8.23;4.18;;;22.30;99.90;;;;;;5094549;28;20598;-74
2022/08/05 04:15:34;;;;;;;7.85;4.13;;;22.30;99.90;;;;;;5094831;28;20254;-74
2022/08/05 04:18:03;;;;;;;5.30;4.03;;;22.30;99.90;;;;;;5094679;28;20249;-74
2022/08/05 04:20:29;;;;;;;4.80;3.92;;;22.30;99.90;;;;;;5094646;28;20330;-74
2022/08/05 04:22:56;;;;;;;5.00;3.95;;;22.40;99.90;;;;;;5094375;28;20697;-74
2022/08/05 04:25:23;;;;;;;8.90;4.57;;;22.30;99.90;;;;;;5094508;28;20196;-74
2022/08/05 04:27:49;;;;;;;5.10;4.10;;;22.40;99.90;;;;;;5094003;28;20200;-74
2022/08/05 04:30:16;;;;;;;7.53;4.25;;;22.40;99.90;;;;;;5094562;28;20201;-74
2022/08/05 04:32:44;;;;;;;4.90;3.80;;;22.40;99.90;;;;;;5094468;28;20205;-74
2022/08/05 04:35:10;;;;;;;4.22;3.83;;;22.40;99.90;;;;;;5094496;28;20258;-75
2022/08/05 04:37:37;;;;;;;7.82;4.32;;;22.60;99.90;;;;;;5094093;28;20655;-74
2022/08/05 04:40:05;;;;;;;7.70;4.07;;;22.70;99.90;;;;;;5094114;28;20232;-74
2022/08/05 04:42:32;;;;;;;5.38;4.30;;;22.80;99.90;;;;;;5094546;28;20203;-74
2022/08/05 04:44:59;;;;;;;8.07;4.32;;;22.80;99.90;;;;;;5094442;28;20192;-74
2022/08/05 04:47:25;;;;;;;6.15;4.25;;;22.90;99.90;;;;;;5094157;28;20196;-74
2022/08/05 04:49:53;;;;;;;8.50;4.68;;;22.90;99.90;;;;;;5094128;28;20254;-74
2022/08/05 04:52:20;;;;;;;5.78;3.92;;;22.90;99.90;;;;;;5093985;28;20204;-74
2022/08/05 04:54:46;;;;;;;5.43;4.40;;;22.90;99.90;;;;;;5093900;28;20265;-74
2022/08/05 04:57:13;;;;;;;4.97;4.30;;;22.90;99.90;;;;;;5094001;28;20249;-74
2022/08/05 04:59:40;;;;;;;13.38;4.18;;;22.90;99.90;;;;;;5094106;28;20193;-74
2022/08/05 05:02:07;;;;;;;10.20;4.20;;;22.90;99.90;;;;;;5094018;28;20228;-74
2022/08/05 05:04:34;;;;;;;5.55;4.50;;;23.10;99.90;;;;;;5093712;28;20196;-74
2022/08/05 05:07:02;;;;;;;6.13;4.20;;;23.20;99.90;;;;;;5093718;28;20196;-74
2022/08/05 05:09:29;;;;;;;8.20;4.07;;;23.20;99.90;;;;;;5093579;28;20197;-74
2022/08/05 05:11:55;;;;;;;5.32;4.25;;;23.30;99.90;;;;;;5093786;28;20249;-74
2022/08/05 05:14:22;;;;;;;9.63;4.75;;;23.50;99.90;;;;;;5093672;28;20196;-74
2022/08/05 05:16:49;;;;;;;7.03;4.43;;;23.70;99.90;;;;;;5093778;28;20606;-74
2022/08/05 05:19:15;;;;;;;6.30;4.03;;;23.80;99.90;;;;;;5093535;28;20249;-74
2022/08/05 05:21:42;;;;;;;8.55;3.83;;;23.90;99.90;;;;;;5093173;28;20224;-74
2022/08/05 05:24:10;;;;;;;6.95;4.15;;;24.00;99.90;;;;;;5093352;28;20204;-74
2022/08/05 05:26:36;;;;;;;10.45;3.90;;;24.00;99.90;;;;;;5093788;28;20270;-74
2022/08/05 05:29:03;;;;;;;8.48;4.43;;;24.10;99.90;;;;;;5093345;28;20688;-74
2022/08/05 05:31:30;;;;;;;5.00;4.05;;;24.00;99.90;;;;;;5093386;28;20200;-74
2022/08/05 05:33:57;;;;;;;9.55;4.15;;;24.00;99.90;;;;;;5093219;28;20655;-74
2022/08/05 05:36:24;;;;;;;4.85;3.92;;;24.00;99.90;;;;;;5093128;28;20200;-74
2022/08/05 05:38:51;;;;;;;5.95;4.05;;;24.20;99.90;;;;;;5093522;28;20193;-74
2022/08/05 05:41:18;;;;;;;7.82;4.30;;;24.40;99.90;;;;;;5092307;28;20755;-74
2022/08/05 05:43:45;;;;;;;8.10;4.10;;;24.50;99.90;;;;;;5093388;28;20556;-74
2022/08/05 05:46:12;;;;;;;8.02;4.30;;;24.60;99.90;;;;;;5093045;28;20219;-75
2022/08/05 05:48:40;;;;;;;7.30;3.83;;;24.80;99.90;;;;;;5093169;28;20336;-74
2022/08/05 05:51:07;;;;;;;6.40;3.92;;;24.70;99.90;;;;;;5092870;28;20566;-75
2022/08/05 05:53:33;;;;;;;6.70;4.07;;;24.70;99.90;;;;;;5092878;28;20716;-75
2022/08/05 05:56:00;;;;;;;8.23;4.57;;;24.70;99.90;;;;;;5093173;28;20204;-74
2022/08/05 05:58:28;;;;;;;6.93;4.38;;;24.60;99.90;;;;;;5092894;28;20226;-76
2022/08/05 06:00:55;;;;;;;8.32;4.28;;;24.40;99.90;;;;;;5093032;28;20269;-74
2022/08/05 06:03:21;;;;;;;12.77;4.63;;;24.20;99.90;;;;;;5092736;28;20253;-74
2022/08/05 06:05:49;;;;;;;8.07;4.15;;;24.20;99.90;;;;;;5093083;28;20253;-74
2022/08/05 06:08:15;;;;;;;6.30;4.10;;;24.20;99.90;;;;;;5093053;28;20196;-74
2022/08/05 06:10:42;;;;;;;8.40;4.22;;;24.20;99.90;;;;;;5092923;28;20211;-74
2022/08/05 06:13:09;;;;;;;8.02;4.10;;;24.20;99.90;;;;;;5092832;28;20192;-74
2022/08/05 06:15:37;;;;;;;6.55;4.07;;;24.20;99.90;;;;;;5092669;28;20725;-74
2022/08/05 06:18:04;;;;;;;6.22;3.88;;;24.20;99.90;;;;;;5092665;28;20307;-74
2022/08/05 06:20:30;;;;;;;6.30;4.25;;;24.10;99.90;;;;;;5092805;28;20220;-74
2022/08/05 06:22:58;;;;;;;11.05;4.68;;;24.10;99.90;;;;;;5092791;28;20200;-74
2022/08/05 06:25:25;;;;;;;9.02;4.25;;;24.20;99.90;;;;;;5092680;28;20200;-75
2022/08/05 06:27:52;;;;;;;8.52;5.13;;;24.30;99.90;;;;;;5092685;28;20192;-74
2022/08/05 06:30:19;;;;;;;8.30;4.90;;;24.20;99.90;;;;;;5092543;28;20249;-74
2022/08/05 06:32:47;;;;;;;11.20;5.00;;;24.20;99.90;;;;;;5092456;28;20254;-74
2022/08/05 06:35:14;;;;;;;9.93;4.68;;;24.20;99.90;;;;;;5093225;28;20204;-75
2022/08/05 06:37:40;;;;;;;13.13;4.40;;;24.50;99.90;;;;;;5092855;28;20192;-74
2022/08/05 06:40:08;;;;;;;5.07;4.38;;;24.50;99.90;;;;;;5092500;28;20622;-74
2022/08/05 06:42:35;;;;;;;5.72;4.47;;;24.70;99.90;;;;;;5092438;28;20274;-74
2022/08/05 06:45:01;;;;;;;5.80;4.32;;;25.00;99.90;;;;;;5092404;28;20201;-80
2022/08/05 06:47:28;;;;;;;10.73;4.10;;;24.90;99.90;;;;;;5092417;28;20721;-74
2022/08/05 06:49:56;;;;;;;11.60;4.80;;;25.00;99.90;;;;;;5092312;28;20200;-74
2022/08/05 06:52:23;;;;;;;10.88;4.47;;;25.20;99.90;;;;;;5095227;28;20728;-75
2022/08/05 06:54:50;;;;;;;9.55;4.63;;;25.00;99.90;;;;;;5096169;28;20201;-74
2022/08/05 06:57:17;;;;;;;9.60;4.82;;;25.10;99.90;;;;;;5096207;28;20211;-74
2022/08/05 06:59:44;;;;;;;6.75;4.28;;;25.50;99.90;;;;;;5095980;28;20630;-75
2022/08/05 07:02:10;;;;;;;6.68;4.80;;;25.70;99.90;;;;;;5096310;28;20820;-74
2022/08/05 07:04:37;;;;;;;6.63;4.35;;;25.60;99.90;;;;;;5096090;28;20200;-74
2022/08/05 07:07:05;;;;;;;6.10;4.35;;;25.70;99.90;;;;;;5096327;28;20207;-75
2022/08/05 07:09:32;;;;;;;9.73;4.75;;;26.00;99.90;;;;;;5096070;28;20249;-75
2022/08/05 07:11:58;;;;;;;8.07;4.25;;;26.00;99.90;;;;;;5095956;28;20196;-74
2022/08/05 07:17:09;;;;;;;6.40;4.20;;;26.40;99.90;;;;;;5095888;28;20199;-75
2022/08/05 07:19:36;;;;;;;8.45;4.60;;;26.30;99.90;;;;;;5095304;28;20651;-75
2022/08/05 07:22:02;;;;;;;9.05;4.85;;;26.30;99.90;;;;;;5093892;28;20699;-74
2022/08/05 07:24:30;;;;;;;6.05;3.97;;;26.30;99.90;;;;;;5095566;28;20258;-73
2022/08/05 07:26:57;;;;;;;9.02;3.95;;;26.20;99.90;;;;;;5095376;28;20575;-75
2022/08/05 07:29:24;;;;;;;7.20;4.15;;;26.10;99.90;;;;;;5095534;28;20204;-75
2022/08/05 07:31:51;;;;;;;5.13;3.88;;;26.20;99.90;;;;;;5095175;28;20200;-76
2022/08/05 07:34:17;;;;;;;5.53;3.85;;;26.30;99.90;;;;;;5095309;28;20200;-75
2022/08/05 07:36:44;;;;;;;6.28;3.75;;;26.10;99.90;;;;;;5095281;28;20204;-75
2022/08/05 07:39:11;;;;;;;3.90;3.30;;;26.10;99.90;;;;;;5094778;28;20197;-74
2022/08/05 07:41:39;;;;;;;6.10;3.60;;;26.50;99.90;;;;;;5095168;28;20301;-75
2022/08/05 07:44:07;;;;;;;5.70;3.50;;;26.20;99.90;;;;;;5095010;28;20193;-75
2022/08/05 07:46:34;;;;;;;4.80;3.50;;;25.90;99.90;;;;;;5095139;28;20732;-75
2022/08/05 07:49:03;;;;;;;10.63;3.72;;;25.80;99.90;;;;;;5095134;28;20201;-74
2022/08/05 07:51:30;;;;;;;4.47;3.47;;;25.80;99.90;;;;;;5094972;28;20199;-73
2022/08/05 07:53:57;;;;;;;5.57;3.78;;;26.20;99.90;;;;;;5094768;28;20257;-75
2022/08/05 07:56:23;;;;;;;6.93;3.20;;;26.40;99.90;;;;;;5094951;28;20200;-76
2022/08/05 07:58:51;;;;;;;6.13;3.50;;;26.50;99.90;;;;;;5094915;28;20196;-75
2022/08/05 08:01:19;;;;;;;6.75;3.30;;;26.60;99.90;;;;;;5094764;28;20628;-75
2022/08/05 08:03:46;;;;;;;4.40;3.13;;;26.80;99.90;;;;;;5093769;28;20196;-75
2022/08/05 08:06:13;;;;;;;4.88;3.10;;;27.00;99.90;;;;;;5094753;28;20196;-80
2022/08/05 08:08:39;;;;;;;5.15;3.20;;;27.00;99.90;;;;;;5094041;28;21854;-75
2022/08/05 08:11:06;;;;;;;4.57;3.40;;;27.00;99.90;;;;;;5094768;28;20200;-75
2022/08/05 08:13:33;;;;;;;7.05;3.38;;;27.00;99.90;;;;;;5094878;28;20197;-75
2022/08/05 08:16:00;;;;;;;5.50;3.58;;;27.00;99.90;;;;;;5094669;28;20265;-75
2022/08/05 08:18:27;;;;;;;3.80;3.38;;;26.90;99.90;;;;;;5094597;28;20250;-75
2022/08/05 08:20:54;;;;;;;4.63;3.53;;;27.00;99.90;;;;;;5094296;28;20199;-77
2022/08/05 08:23:20;;;;;;;4.63;3.00;;;27.30;99.90;;;;;;5094670;28;20268;-76
2022/08/05 08:25:47;;;;;;;6.43;3.25;;;27.60;99.90;;;;;;5094237;28;20204;-76
2022/08/05 08:28:14;;;;;;;4.90;2.70;;;27.90;99.90;;;;;;5093372;28;20277;-76
2022/08/05 08:30:40;;;;;;;4.75;3.17;;;27.70;99.70;;;;;;5093203;28;20230;-76
2022/08/05 08:33:10;;;;;;;3.50;3.20;;;27.80;98.90;;;;;;5093359;28;20257;-76
2022/08/05 08:35:37;;;;;;;4.53;3.22;;;28.00;97.00;;;;;;5093173;28;20204;-77
2022/08/05 08:38:04;;;;;;;7.18;3.00;;;28.00;97.00;;;;;;5093359;28;20285;-76
2022/08/05 08:40:34;;;;;;;3.22;2.17;;;28.20;95.20;;;;;;5093049;28;20707;-76
2022/08/05 08:43:01;;;;;;;2.90;2.15;;;28.40;92.90;;;;;;5093878;28;20318;-77
2022/08/05 08:45:31;;;;;;;4.10;2.50;;;28.70;90.90;;;;;;5094105;28;20192;-77
2022/08/05 08:48:01;;;;;;;4.22;2.72;;;28.30;90.70;;;;;;5093887;28;20193;-77
2022/08/05 08:50:32;;;;;;;5.68;2.70;;;28.20;90.80;;;;;;5094411;28;20204;-77
2022/08/05 08:53:03;;;;;;;6.75;3.35;;;28.20;90.20;;;;;;5094091;28;20228;-77
2022/08/05 08:55:30;;;;;;;7.82;3.35;;;28.50;90.00;;;;;;5094063;28;20200;-77
2022/08/05 08:57:58;;;;;;;7.55;4.05;;;28.90;87.60;;;;;;5093967;28;20196;-77
2022/08/05 09:00:25;;;;;;;3.80;2.25;;;29.00;86.80;;;;;;5093703;28;20200;-77
2022/08/05 09:02:53;;;;;;;3.92;2.40;;;29.40;83.40;;;;;;5093704;28;20578;-77
2022/08/05 09:05:20;;;;;;;4.18;2.20;;;29.70;80.40;;;;;;5093927;28;20192;-77
2022/08/05 09:07:48;;;;;;;3.85;1.90;;;29.50;75.10;;;;;;5093772;28;20253;-77
2022/08/05 09:10:15;;;;;;;2.65;2.30;;;29.80;71.70;;;;;;5093684;28;20212;-77
2022/08/05 09:12:42;;;;;;;2.40;2.03;;;29.80;71.00;;;;;;5093622;28;20196;-76
2022/08/05 09:15:09;;;;;;;3.53;2.13;;;29.80;69.70;;;;;;5093467;28;20192;-77
2022/08/05 09:17:36;;;;;;;2.75;1.98;;;30.00;66.90;;;;;;5093601;28;20199;-77
2022/08/05 09:20:04;;;;;;;2.20;2.00;;;29.60;65.50;;;;;;5093966;28;20197;-77
2022/08/05 09:23:07;;;;;;;2.17;2.00;;;29.40;63.80;;;;;;5093451;28;20264;-77
2022/08/05 09:25:34;;;;;;;4.00;2.28;;;29.80;64.10;;;;;;5093354;28;20196;-77
2022/08/05 09:28:10;;;;;;;2.33;2.08;;;29.50;63.40;;;;;;5093282;28;20197;-77
2022/08/05 09:30:37;;;;;;;2.20;2.00;;;29.60;63.50;;;;;;5093506;28;20195;-77
2022/08/05 09:33:05;;;;;;;2.58;2.13;;;29.70;63.10;;;;;;5093229;28;20575;-77
2022/08/05 09:35:32;;;;;;;3.58;2.30;;;30.10;63.40;;;;;;5093288;28;20203;-77
2022/08/05 09:37:58;;;;;;;2.45;2.17;;;30.40;63.20;;;;;;5093130;28;20592;-77
2022/08/05 09:40:35;;;;;;;2.20;2.00;;;30.60;61.30;;;;;;5092944;28;20315;-77
2022/08/05 09:43:05;;;;;;;5.30;2.33;;;30.60;59.60;;;;;;5093166;28;20220;-77
2022/08/05 09:45:37;;;;;;;3.13;2.33;;;30.80;57.60;;;;;;5092955;28;20228;-77
2022/08/05 09:48:19;;;;;;;2.30;2.10;;;30.80;57.60;;;;;;5092858;28;20208;-77
2022/08/05 09:50:50;;;;;;;4.32;2.17;;;31.20;54.50;;;;;;5092969;28;20197;-77
2022/08/05 09:53:17;;;;;;;3.97;2.20;;;31.00;53.70;;;;;;5093146;28;20223;-76
2022/08/05 09:55:45;;;;;;;3.58;2.38;;;30.80;53.10;;;;;;5092821;28;20556;-76
2022/08/05 09:58:13;;;;;;;2.70;2.20;;;30.60;53.20;;;;;;5092803;28;20273;-76
2022/08/05 10:00:51;;;;;;;2.35;2.22;;;30.90;52.30;;;;;;5093003;28;20200;-77
2022/08/05 10:03:17;;;;;;;3.10;2.00;;;30.70;51.20;;;;;;5093184;28;20208;-79
2022/08/05 10:05:44;;;;;;;3.08;1.88;;;31.00;50.50;;;;;;5092894;28;20246;-77
2022/08/05 10:08:11;;;;;;;4.88;2.33;;;30.90;50.50;;;;;;5093017;28;20200;-78
2022/08/05 10:10:47;;;;;;;3.55;2.95;;;31.40;49.90;;;;;;5092824;28;20200;-78
2022/08/05 10:13:27;;;;;;;2.75;2.00;;;31.80;48.90;;;;;;5092980;28;20671;-77
2022/08/05 10:15:55;;;;;;;2.45;2.10;;;31.90;47.60;;;;;;5092946;28;20200;-76
2022/08/05 10:18:22;;;;;;;3.72;2.03;;;31.90;47.40;;;;;;5092885;28;20199;-78
2022/08/05 10:20:51;;;;;;;2.13;1.92;;;32.20;46.70;;;;;;5093044;28;20202;-77
2022/08/05 10:23:20;;;;;;;3.35;2.03;;;32.40;46.70;;;;;;5092676;28;20224;-78
2022/08/05 10:25:47;;;;;;;5.43;2.10;;;32.80;45.50;;;;;;5093073;28;20204;-79
2022/08/05 10:28:16;;;;;;;6.72;2.13;;;32.70;44.50;;;;;;5096835;28;20191;-79
2022/08/05 10:30:43;;;;;;;3.28;1.92;;;33.40;44.60;;;;;;5096869;28;20196;-78
2022/08/05 10:33:10;;;;;;;5.93;2.35;;;33.30;43.40;;;;;;5096812;28;20206;-79
2022/08/05 10:35:37;;;;;;;3.08;2.15;;;32.30;44.00;;;;;;5096649;28;20195;-77
2022/08/05 10:38:05;;;;;;;5.55;1.92;;;32.90;43.90;;;;;;5096640;28;20202;-77
2022/08/05 10:40:38;;;;;;;4.57;2.10;;;32.40;42.90;;;;;;5096362;28;20285;-77
2022/08/05 10:43:12;;;;;;;3.63;2.30;;;32.20;43.90;;;;;;5096608;28;20277;-77
2022/08/05 10:45:40;;;;;;;4.20;2.17;;;32.60;43.50;;;;;;5096494;28;20256;-78
2022/08/05 10:48:33;;;;;;;2.55;1.92;;;33.40;41.80;;;;;;5096406;28;20208;-78
2022/08/05 10:51:03;;;;;;;2.40;2.00;;;34.80;40.70;;;;;;5096271;28;20204;-78
2022/08/05 10:53:43;;;;;;;4.68;2.10;;;35.70;39.20;;;;;;5096516;28;20207;-78
2022/08/05 10:56:13;;;;;;;6.28;2.03;;;35.40;38.20;;;;;;5096175;28;20195;-78
2022/08/05 10:58:49;;;;;;;4.22;2.08;;;36.10;37.20;;;;;;5096175;28;20242;-77
2022/08/05 11:01:17;;;;;;;3.53;1.90;;;36.20;35.20;;;;;;5096041;28;20195;-78
2022/08/05 11:04:00;;;;;;;2.88;2.17;;;35.70;35.50;;;;;;5096010;28;20224;-78
2022/08/05 11:06:26;;;;;;;2.22;2.00;;;35.70;34.10;;;;;;5096199;28;20260;-78
2022/08/05 11:09:16;;;;;;;3.40;2.00;;;35.40;34.10;;;;;;5096064;28;20204;-78
2022/08/05 11:11:45;;;;;;;3.30;1.92;;;35.10;34.90;;;;;;5095895;28;20200;-76
2022/08/05 11:14:13;;;;;;;3.22;2.00;;;36.00;33.80;;;;;;5095844;28;20295;-78
2022/08/05 11:16:41;;;;;;;2.47;2.08;;;37.60;32.50;;;;;;5095729;28;20200;-78
2022/08/05 11:19:28;;;;;;;2.55;2.00;;;37.60;31.60;;;;;;5095850;28;20202;-78
2022/08/05 11:21:56;;;;;;;4.57;2.05;;;37.80;31.40;;;;;;5095506;28;20528;-78
2022/08/05 11:24:23;;;;;;;2.38;2.17;;;38.20;30.00;;;;;;5095685;28;20728;-78
2022/08/05 11:27:06;;;;;;;4.47;2.00;;;38.90;29.30;;;;;;5097447;28;20286;-79
2022/08/05 11:29:39;;;;;;;5.80;2.30;;;38.90;27.30;;;;;;5096615;28;20720;-78
2022/08/05 11:32:27;;;;;;;2.92;2.25;;;38.90;27.00;;;;;;5095623;28;20203;-76
2022/08/05 11:34:55;;;;;;;4.82;1.90;;;39.10;27.00;;;;;;5094320;28;20257;-77
2022/08/05 11:38:00;;;;;;;2.83;2.30;;;38.30;26.20;;;;;;5092420;28;20192;-78
2022/08/05 11:40:57;;;;;;;5.18;2.45;;;36.40;27.50;;;;;;5037455;28;20240;-77
2022/08/05 11:43:24;;;;;;;4.32;2.40;;;35.60;28.60;;;;;;5095342;28;20312;-79
2022/08/05 11:45:51;;;;;;;3.80;2.20;;;35.80;28.70;;;;;;5095298;28;20238;-78
2022/08/05 11:48:19;;;;;;;3.08;2.08;;;37.30;28.20;;;;;;5095239;28;20195;-78
2022/08/05 11:50:47;;;;;;;3.30;1.88;;;36.60;27.70;;;;;;5094992;28;20597;-79
2022/08/05 11:53:14;;;;;;;2.10;1.90;;;37.80;27.30;;;;;;5095277;28;20724;-79
2022/08/05 11:55:53;;;;;;;2.42;1.88;;;39.00;26.00;;;;;;5092767;28;20207;-78
2022/08/05 11:58:25;;;;;;;4.20;2.15;;;39.00;26.00;;;;;;5088749;28;20708;-76
2022/08/05 12:01:02;;;;;;;2.85;1.80;;;38.10;26.50;;;;;;5095371;28;20196;-77
2022/08/05 12:03:30;;;;;;;2.00;1.90;;;38.70;25.50;;;;;;5095443;28;20306;-79
2022/08/05 12:06:02;;;;;;;3.17;1.85;;;39.90;25.40;;;;;;5095496;28;20199;-79
2022/08/05 12:08:30;;;;;;;2.58;2.10;;;37.30;24.90;;;;;;5095445;28;20241;-77
2022/08/05 12:10:59;;;;;;;2.45;2.28;;;37.00;25.80;;;;;;5095142;28;20192;-76
2022/08/05 12:13:25;;;;;;;3.90;2.03;;;37.80;24.90;;;;;;5094892;28;20200;-76
2022/08/05 12:15:52;;;;;;;5.97;1.92;;;37.90;24.80;;;;;;5095106;28;20290;-78
2022/08/05 12:18:19;;;;;;;3.38;2.10;;;36.50;25.80;;;;;;5094707;28;20324;-78
2022/08/05 12:20:47;;;;;;;2.38;2.03;;;37.30;25.80;;;;;;5095097;28;20226;-78
2022/08/05 12:23:14;;;;;;;2.30;2.10;;;37.50;25.30;;;;;;5094928;28;20248;-76
2022/08/05 12:25:51;;;;;;;3.25;2.25;;;37.60;25.30;;;;;;5094716;28;20253;-77
2022/08/05 12:28:31;;;;;;;2.30;2.10;;;38.00;24.70;;;;;;5094851;28;20206;-75
2022/08/05 12:30:58;;;;;;;2.63;2.10;;;38.40;24.90;;;;;;5079959;28;20200;-79
2022/08/05 12:33:25;;;;;;;2.13;2.00;;;38.70;24.60;;;;;;5074143;28;20204;-78
2022/08/05 12:35:53;;;;;;;3.72;2.45;;;38.90;24.60;;;;;;5073328;28;20556;-79
2022/08/05 12:38:20;;;;;;;2.70;2.05;;;38.80;24.70;;;;;;5074217;28;20196;-80
2022/08/05 12:40:47;;;;;;;3.53;2.53;;;40.20;23.80;;;;;;5073086;28;20270;-76
2022/08/05 12:43:14;;;;;;;3.25;2.42;;;39.80;23.50;;;;;;5076296;28;20356;-78
2022/08/05 12:45:50;;;;;;;2.65;2.45;;;38.70;23.70;;;;;;5074081;28;20200;-77
2022/08/05 12:48:17;;;;;;;2.72;1.92;;;40.00;23.80;;;;;;5074081;28;20655;-77
2022/08/05 12:50:44;;;;;;;4.00;2.60;;;41.40;22.80;;;;;;5073709;28;20648;-77
2022/08/05 12:53:16;;;;;;;2.58;2.35;;;40.80;22.80;;;;;;5074178;28;20203;-77
2022/08/05 12:55:43;;;;;;;2.45;2.20;;;40.60;22.50;;;;;;5074025;28;20283;-76
2022/08/05 12:58:24;;;;;;;2.67;2.33;;;40.40;22.00;;;;;;5073104;28;20274;-79